EGLLEGLC

Guest
Details From EGLL - London Heathrow
To EGLC - London City
Flight Number -
Tags Routegen
Created
Modified
Stats Distance 20 nm / 37 km
Max Altitude 0 ft / 0 m
Waypoints 2
Social Downloads 19
Likes 0
Share

Download

Looking for another format? Having issues loading an existing format? Contact us
Advertisement - Login to hide

Notes

None

Route

EGLL EGLC

ID Type Via Altitude (ft/m) Position (lat/lon) Dist (leg/tot) Name
O EGLL APT - 0 / 0 51.47747 / -0.48963 - / 0 nm
O EGLC APT - 0 / 0 51.50558 / 0.04414 20 / 20 nm

Altitude Profile

Advertisement - Login to hide

EGLL

Details ICAO EGLL (LHR)
Name London Heathrow
Region United Kingdom
Timezone Europe/London (UTC+0.0)
Stats Elevation 83 ft / 25 m (AMSL)
Location 51.471200° -0.460881°
Runways 2
Magnetic Variation 0.168° E

METAR

EGLL 031320Z AUTO 05009KT 360V080 9999 BKN019 BKN023 OVC033 07/04 Q1019

Decode

TAF

TAF EGLL 031056Z 0312/0418 05011KT 9999 SCT045 PROB30 TEMPO 0323/0415 9000 -RA BKN012 BECMG 0415/0418 BKN011

Decode

Departure Runways

ID Width Length Bearing (true/mag) Surface Threshold Overrun Markings Lighting
09L 164 ft / 50 m 12,770 ft / 3,892 m 89.66° / 89.49° ASPHALT 1,007 ft / 307 m 0 ft / 0 m PREC-APP CENTERLINE EDGE THRESHOLD CALVERT-ILS TDZ REIL-OMNI
09R 164 ft / 50 m 11,975 ft / 3,650 m 89.68° / 89.51° ASPHALT 1,004 ft / 306 m 0 ft / 0 m PREC-APP CENTERLINE EDGE THRESHOLD CALVERT-ILS TDZ REIL-OMNI
27L 164 ft / 50 m 11,975 ft / 3,650 m 269.72° / 269.55° ASPHALT 0 ft / 0 m 95 ft / 29 m PREC-APP CENTERLINE EDGE THRESHOLD CALVERT-ILS TDZ REIL-OMNI
27R 164 ft / 50 m 12,770 ft / 3,892 m 269.70° / 269.54° ASPHALT 0 ft / 0 m 177 ft / 54 m PREC-APP CENTERLINE EDGE THRESHOLD CALVERT-ILS TDZ REIL-OMNI

EGLC

Details ICAO EGLC (LCY)
Name London City
Region United Kingdom
Timezone Europe/London (UTC+0.0)
Stats Elevation 19 ft / 6 m (AMSL)
Location 51.505200° 0.055176°
Runways 1
Magnetic Variation 0.340° E

METAR

EGLC 031320Z AUTO 07014KT 9999 FEW024 BKN029 08/03 Q1019

Decode

TAF

Not found

Destination Runways

ID Width Length Bearing (true/mag) Surface Threshold Overrun Markings Lighting
09 98 ft / 30 m 4,916 ft / 1,498 m 92.88° / 92.54° ASPHALT 315 ft / 96 m 190 ft / 58 m UK-PREC-APP CENTERLINE EDGE THRESHOLD CALVERT REIL-OMNI
27 98 ft / 30 m 4,916 ft / 1,498 m 272.90° / 272.56° ASPHALT 230 ft / 70 m 302 ft / 92 m UK-PREC-APP CENTERLINE EDGE THRESHOLD CALVERT REIL-OMNI

Approach Navaids

Runway Type Ident Frequency Range Bearing (true/mag) Slope Elevation
09 DME ILST 111.15 MHz 18 nm / 33 km - - 48 ft / 15 m (AMSL)
09 GS ILST 111.15 MHz 10 nm / 19 km 92.89° / 92.55 ° 5.50° 19 ft / 6 m (AMSL)
09 LOC-ILS ILST 111.15 MHz 18 nm / 33 km 92.89° / 92.55 ° - 19 ft / 6 m (AMSL)
27 LOC-ILS ILSR 111.15 MHz 18 nm / 33 km 272.89° / 272.55 ° - 19 ft / 6 m (AMSL)
27 GS ILSR 111.15 MHz 10 nm / 19 km 272.89° / 272.55 ° 5.50° 19 ft / 6 m (AMSL)
27 DME ILSR 111.15 MHz 18 nm / 33 km - - 48 ft / 15 m (AMSL)

Popular Alternatives